createdAt,value
2023-03-30T00:00:01.671Z,26.32
2023-03-30T00:01:01.876Z,26.32
2023-03-30T00:02:01.627Z,26.34
2023-03-30T00:03:01.747Z,26.34
2023-03-30T00:04:01.753Z,26.31
2023-03-30T00:05:01.820Z,26.34
2023-03-30T00:06:01.595Z,26.32
2023-03-30T00:07:01.592Z,26.34
2023-03-30T00:08:01.606Z,26.34
2023-03-30T00:09:01.584Z,26.32
2023-03-30T00:10:01.588Z,26.32
2023-03-30T00:11:01.824Z,26.31
2023-03-30T00:12:01.583Z,26.31
2023-03-30T00:13:01.588Z,26.32
2023-03-30T00:14:01.538Z,26.29
2023-03-30T00:15:01.551Z,26.32
2023-03-30T00:16:01.627Z,26.31
2023-03-30T00:17:01.554Z,26.32
2023-03-30T00:18:01.555Z,26.34
2023-03-30T00:19:01.511Z,26.31
2023-03-30T00:20:01.548Z,26.29
2023-03-30T00:21:01.644Z,26.31
2023-03-30T00:22:01.503Z,26.29
2023-03-30T00:23:01.497Z,26.31
2023-03-30T00:24:01.478Z,26.31
2023-03-30T00:25:01.467Z,26.32
2023-03-30T00:26:01.553Z,26.31
2023-03-30T00:27:01.461Z,26.31
2023-03-30T00:28:01.448Z,26.29
2023-03-30T00:29:01.445Z,26.31
2023-03-30T00:30:01.477Z,26.31
2023-03-30T00:31:01.653Z,26.31
2023-03-30T00:32:01.468Z,26.29
2023-03-30T00:33:01.444Z,26.34
2023-03-30T00:34:01.417Z,26.32
2023-03-30T00:35:01.417Z,26.31
2023-03-30T00:36:01.411Z,26.34
2023-03-30T00:37:01.375Z,26.32
2023-03-30T00:38:01.389Z,26.31
2023-03-30T00:39:01.375Z,26.31
2023-03-30T00:40:01.374Z,26.32
2023-03-30T00:41:01.460Z,26.28
2023-03-30T00:42:01.353Z,26.31
2023-03-30T00:43:01.339Z,26.35
2023-03-30T00:44:01.380Z,26.31
2023-03-30T00:45:01.355Z,26.29
2023-03-30T00:46:01.575Z,26.29
2023-03-30T00:47:01.292Z,26.29
2023-03-30T00:48:01.379Z,26.29
2023-03-30T00:49:01.275Z,26.28
2023-03-30T00:50:01.264Z,26.29
2023-03-30T00:51:01.587Z,26.31
2023-03-30T00:52:01.381Z,26.29
2023-03-30T00:53:01.379Z,26.32
2023-03-30T00:54:01.403Z,26.29
2023-03-30T00:55:01.399Z,26.29
2023-03-30T00:56:01.356Z,26.29
2023-03-30T00:57:01.388Z,26.29
2023-03-30T00:58:01.378Z,26.29
2023-03-30T00:59:01.395Z,26.31
2023-03-30T01:00:01.387Z,26.31
2023-03-30T01:01:01.433Z,26.31
2023-03-30T01:02:01.433Z,26.31
2023-03-30T01:03:01.465Z,26.31
2023-03-30T01:04:01.385Z,26.29
2023-03-30T01:05:01.410Z,26.29
2023-03-30T01:06:01.457Z,26.31
2023-03-30T01:07:01.528Z,26.31
2023-03-30T01:08:01.465Z,26.28
2023-03-30T01:09:01.448Z,26.31
2023-03-30T01:10:01.467Z,26.31
2023-03-30T01:11:01.694Z,26.29
2023-03-30T01:12:01.444Z,26.28
2023-03-30T01:13:01.459Z,26.31
2023-03-30T01:14:01.514Z,26.29
2023-03-30T01:15:01.451Z,26.29
2023-03-30T01:16:01.531Z,26.29
2023-03-30T01:17:01.595Z,26.28
2023-03-30T01:18:01.688Z,26.29
2023-03-30T01:19:01.633Z,26.29
2023-03-30T01:20:01.636Z,26.28
2023-03-30T01:21:01.742Z,26.29
2023-03-30T01:22:01.649Z,26.29
2023-03-30T01:23:01.646Z,26.29
2023-03-30T01:24:01.675Z,26.28
2023-03-30T01:25:01.677Z,26.28
2023-03-30T01:26:01.662Z,26.28
2023-03-30T01:27:01.656Z,26.28
2023-03-30T01:28:01.693Z,26.27
2023-03-30T01:29:01.718Z,26.29
2023-03-30T01:30:01.732Z,26.28
2023-03-30T01:31:01.907Z,26.29
2023-03-30T01:32:01.722Z,26.28
2023-03-30T01:33:01.764Z,26.25
2023-03-30T01:34:01.750Z,26.29
2023-03-30T01:35:01.759Z,26.25
2023-03-30T01:36:01.758Z,26.29
2023-03-30T01:37:01.737Z,26.28
2023-03-30T01:38:01.724Z,26.29
2023-03-30T01:39:01.745Z,26.29
2023-03-30T01:40:01.745Z,26.28
2023-03-30T01:41:02.052Z,26.25
2023-03-30T01:42:01.835Z,26.28
2023-03-30T01:43:01.896Z,26.27
2023-03-30T01:44:01.823Z,26.28
2023-03-30T01:45:01.863Z,26.27
2023-03-30T01:46:01.842Z,26.29
2023-03-30T01:47:01.941Z,26.29
2023-03-30T01:48:01.947Z,26.28
2023-03-30T01:49:01.924Z,26.27
2023-03-30T01:50:01.930Z,26.28
2023-03-30T01:51:02.144Z,26.27
2023-03-30T01:52:01.975Z,26.29
2023-03-30T01:53:01.966Z,26.25
2023-03-30T01:54:01.992Z,26.25
2023-03-30T01:55:01.985Z,26.25
2023-03-30T01:56:02.009Z,26.28
2023-03-30T01:57:02.151Z,26.27
2023-03-30T01:58:02.096Z,26.25
2023-03-30T01:59:02.105Z,26.25
2023-03-30T02:00:02.111Z,26.27
2023-03-30T02:01:02.326Z,26.27
2023-03-30T02:02:02.200Z,26.25
2023-03-30T02:03:02.235Z,26.27
2023-03-30T02:04:02.324Z,26.27
2023-03-30T02:05:02.250Z,26.27
2023-03-30T02:06:02.185Z,26.25
2023-03-30T02:07:02.287Z,26.25
2023-03-30T02:08:02.289Z,26.27
2023-03-30T02:09:02.338Z,26.25
2023-03-30T02:10:02.301Z,26.27
2023-03-30T02:11:02.623Z,26.27
2023-03-30T02:12:02.324Z,26.27
2023-03-30T02:13:02.340Z,26.24
2023-03-30T02:14:02.361Z,26.25
2023-03-30T02:15:02.375Z,26.28
2023-03-30T02:16:02.498Z,26.28
2023-03-30T02:17:02.389Z,26.27
2023-03-30T02:18:02.408Z,26.25
2023-03-30T02:19:02.414Z,26.24
2023-03-30T02:20:02.422Z,26.25
2023-03-30T02:21:02.650Z,26.25
2023-03-30T02:22:02.463Z,26.25
2023-03-30T02:23:02.470Z,26.25
2023-03-30T02:24:02.479Z,26.28
2023-03-30T02:25:02.491Z,26.25
2023-03-30T02:26:02.493Z,26.25
2023-03-30T02:27:02.509Z,26.27
2023-03-30T02:28:02.524Z,26.24
2023-03-30T02:29:02.534Z,26.25
2023-03-30T02:30:02.553Z,26.25
2023-03-30T02:31:02.747Z,26.25
2023-03-30T02:32:02.730Z,26.25
2023-03-30T02:33:02.752Z,26.24
2023-03-30T02:34:02.742Z,26.24
2023-03-30T02:35:02.794Z,26.27
2023-03-30T02:36:02.820Z,26.25
2023-03-30T02:37:02.769Z,26.25
2023-03-30T02:38:02.787Z,26.25
2023-03-30T02:39:02.894Z,26.25
2023-03-30T02:40:02.922Z,26.25
2023-03-30T02:41:03.030Z,26.27
2023-03-30T02:42:02.893Z,26.27
2023-03-30T02:43:02.931Z,26.24
2023-03-30T02:44:02.941Z,26.27
2023-03-30T02:45:03.048Z,26.25
2023-03-30T02:46:03.024Z,26.25
2023-03-30T02:47:02.963Z,26.28
2023-03-30T02:48:03.039Z,26.25
2023-03-30T02:49:03.021Z,26.28
2023-03-30T02:50:03.048Z,26.25
2023-03-30T02:51:03.254Z,26.25
2023-03-30T02:52:03.071Z,26.25
2023-03-30T02:53:03.168Z,26.24
2023-03-30T02:54:03.283Z,26.27
2023-03-30T02:55:03.305Z,26.22
2023-03-30T02:56:03.283Z,26.25
2023-03-30T02:57:03.368Z,26.27
2023-03-30T02:58:03.313Z,26.24
2023-03-30T02:59:03.349Z,26.24
2023-03-30T03:00:03.321Z,26.24
2023-03-30T03:01:03.598Z,26.24
2023-03-30T03:02:03.456Z,26.24
2023-03-30T03:03:03.508Z,26.27
2023-03-30T03:04:03.421Z,26.25
2023-03-30T03:05:03.431Z,26.24
2023-03-30T03:06:03.416Z,26.22
2023-03-30T03:07:03.427Z,26.24
2023-03-30T03:08:03.427Z,26.22
2023-03-30T03:09:03.455Z,26.24
2023-03-30T03:10:03.464Z,26.25
2023-03-30T03:11:03.792Z,26.25
2023-03-30T03:12:03.500Z,26.24
2023-03-30T03:13:03.507Z,26.25
2023-03-30T03:14:03.490Z,26.22
2023-03-30T03:15:03.511Z,26.25
2023-03-30T03:16:04.288Z,26.22
2023-03-30T03:17:03.562Z,26.24
2023-03-30T03:18:03.610Z,26.25
2023-03-30T03:19:03.561Z,26.22
2023-03-30T03:20:03.612Z,26.27
2023-03-30T03:21:03.756Z,26.24
2023-03-30T03:22:03.656Z,26.24
2023-03-30T03:23:03.673Z,26.24
2023-03-30T03:24:03.674Z,26.24
2023-03-30T03:25:03.683Z,26.25
2023-03-30T03:26:03.681Z,26.24
2023-03-30T03:27:03.707Z,26.21
2023-03-30T03:28:03.719Z,26.24
2023-03-30T03:29:03.710Z,26.21
2023-03-30T03:30:03.740Z,26.24
2023-03-30T03:31:03.954Z,26.24
2023-03-30T03:32:03.839Z,26.24
2023-03-30T03:33:03.889Z,26.25
2023-03-30T03:34:03.868Z,26.21
2023-03-30T03:35:03.863Z,26.22
2023-03-30T03:36:04.149Z,26.24
2023-03-30T03:37:03.892Z,26.22
2023-03-30T03:38:03.891Z,26.24
2023-03-30T03:39:03.915Z,26.22
2023-03-30T03:40:03.931Z,26.25
2023-03-30T03:41:04.080Z,26.24
2023-03-30T03:42:03.941Z,26.24
2023-03-30T03:43:03.970Z,26.25
2023-03-30T03:44:03.955Z,26.24
2023-03-30T03:45:03.977Z,26.24
2023-03-30T03:46:04.108Z,26.24
2023-03-30T03:47:03.981Z,26.24
2023-03-30T03:48:04.030Z,26.24
2023-03-30T03:49:03.998Z,26.22
2023-03-30T03:50:04.050Z,26.24
2023-03-30T03:51:04.230Z,26.25
2023-03-30T03:52:04.109Z,26.22
2023-03-30T03:53:04.202Z,26.22
2023-03-30T03:54:04.222Z,26.22
2023-03-30T03:55:04.235Z,26.22
2023-03-30T03:56:04.221Z,26.22
2023-03-30T03:57:04.263Z,26.24
2023-03-30T03:58:04.226Z,26.25
2023-03-30T03:59:04.333Z,26.25
2023-03-30T04:00:04.329Z,26.22
2023-03-30T04:01:04.488Z,26.22
2023-03-30T04:02:04.368Z,26.21
2023-03-30T04:03:04.378Z,26.21
2023-03-30T04:04:04.373Z,26.20
2023-03-30T04:05:04.484Z,26.22
2023-03-30T04:06:04.392Z,26.21
2023-03-30T04:07:04.440Z,26.22
2023-03-30T04:08:04.433Z,26.24
2023-03-30T04:09:04.466Z,26.21
2023-03-30T04:10:04.509Z,26.21
2023-03-30T04:11:04.664Z,26.22
2023-03-30T04:12:04.587Z,26.22
2023-03-30T04:13:04.538Z,26.22
2023-03-30T04:14:04.626Z,26.21
2023-03-30T04:15:04.571Z,26.22
2023-03-30T04:16:04.637Z,26.22
2023-03-30T04:17:04.602Z,26.22
2023-03-30T04:18:04.634Z,26.22
2023-03-30T04:19:04.641Z,26.21
2023-03-30T04:20:04.649Z,26.21
2023-03-30T04:21:04.853Z,26.22
2023-03-30T04:22:04.675Z,26.20
2023-03-30T04:23:04.699Z,26.22
2023-03-30T04:24:04.718Z,26.22
2023-03-30T04:25:04.721Z,26.21
2023-03-30T04:26:04.728Z,26.22
2023-03-30T04:27:04.793Z,26.21
2023-03-30T04:28:04.827Z,26.21
2023-03-30T04:29:04.842Z,26.22
2023-03-30T04:30:04.850Z,26.21
2023-03-30T04:31:05.139Z,26.22
2023-03-30T04:32:04.952Z,26.22
2023-03-30T04:33:05.053Z,26.21
2023-03-30T04:34:04.933Z,26.22
2023-03-30T04:35:04.960Z,26.22
2023-03-30T04:36:05.003Z,26.21
2023-03-30T04:37:05.024Z,26.21
2023-03-30T04:38:05.005Z,26.21
2023-03-30T04:39:05.024Z,26.20
2023-03-30T04:40:05.043Z,26.22
2023-03-30T04:41:05.308Z,26.24
2023-03-30T04:42:05.043Z,26.21
2023-03-30T04:43:05.087Z,26.20
2023-03-30T04:44:05.098Z,26.18
2023-03-30T04:45:05.111Z,26.21
2023-03-30T04:46:05.131Z,26.21
2023-03-30T04:47:05.218Z,26.21
2023-03-30T04:48:05.320Z,26.21
2023-03-30T04:49:05.311Z,26.21
2023-03-30T04:50:05.324Z,26.22
2023-03-30T04:51:05.436Z,26.20
2023-03-30T04:52:05.365Z,26.20
2023-03-30T04:53:05.360Z,26.21
2023-03-30T04:54:05.410Z,26.22
2023-03-30T04:55:05.420Z,26.21
2023-03-30T04:56:05.427Z,26.21
2023-03-30T04:57:05.448Z,26.20
2023-03-30T04:58:05.449Z,26.21
2023-03-30T04:59:05.485Z,26.22
2023-03-30T05:00:05.534Z,26.21
2023-03-30T05:01:05.649Z,26.22
2023-03-30T05:02:05.606Z,26.24
2023-03-30T05:03:05.577Z,26.24
2023-03-30T05:04:05.563Z,26.24
2023-03-30T05:05:05.543Z,26.25
2023-03-30T05:06:05.656Z,26.25
2023-03-30T05:07:05.629Z,26.28
2023-03-30T05:08:05.661Z,26.28
2023-03-30T05:09:05.639Z,26.29
2023-03-30T05:10:05.667Z,26.28
2023-03-30T05:11:05.902Z,26.31
2023-03-30T05:12:05.773Z,26.32
2023-03-30T05:13:05.776Z,26.31
2023-03-30T05:14:05.755Z,26.32
2023-03-30T05:15:05.756Z,26.31
2023-03-30T05:16:05.775Z,26.34
2023-03-30T05:17:05.955Z,26.32
2023-03-30T05:18:05.900Z,26.31
2023-03-30T05:19:05.972Z,26.29
2023-03-30T05:20:05.953Z,26.29
2023-03-30T05:21:06.137Z,26.29
2023-03-30T05:22:05.977Z,26.31
2023-03-30T05:23:05.992Z,26.31
2023-03-30T05:24:06.095Z,26.31
2023-03-30T05:25:06.178Z,26.28
2023-03-30T05:26:06.252Z,26.31
2023-03-30T05:27:06.199Z,26.29
2023-03-30T05:28:06.244Z,26.31
2023-03-30T05:29:06.237Z,26.32
2023-03-30T05:30:06.299Z,26.32
2023-03-30T05:31:06.552Z,26.32
2023-03-30T05:32:06.394Z,26.34
2023-03-30T05:33:06.426Z,26.39
2023-03-30T05:34:06.380Z,26.41
2023-03-30T05:35:06.363Z,26.39
2023-03-30T05:36:06.485Z,26.45
2023-03-30T05:37:06.377Z,26.48
2023-03-30T05:38:06.410Z,26.52
2023-03-30T05:39:06.429Z,26.53
2023-03-30T05:40:06.509Z,26.58
2023-03-30T05:41:06.625Z,26.59
2023-03-30T05:42:06.671Z,26.60
2023-03-30T05:43:07.874Z,26.63
2023-03-30T05:44:06.847Z,26.64
2023-03-30T05:45:07.121Z,26.66
2023-03-30T05:46:06.954Z,26.68
2023-03-30T05:47:06.999Z,26.69
2023-03-30T05:48:07.064Z,26.69
2023-03-30T05:49:07.155Z,26.72
2023-03-30T05:50:07.173Z,26.73
2023-03-30T05:51:07.368Z,26.72
2023-03-30T05:52:07.315Z,26.72
2023-03-30T05:53:07.376Z,26.76
2023-03-30T05:54:07.418Z,26.73
2023-03-30T05:55:07.511Z,26.78
2023-03-30T05:56:07.521Z,26.79
2023-03-30T05:57:07.595Z,26.78
2023-03-30T05:58:07.646Z,26.80
2023-03-30T05:59:07.669Z,26.79
2023-03-30T06:00:07.729Z,26.79
2023-03-30T06:01:07.798Z,26.80
2023-03-30T06:02:09.657Z,26.79
2023-03-30T06:03:07.956Z,26.82
2023-03-30T06:04:07.931Z,26.82
2023-03-30T06:05:07.819Z,26.82
2023-03-30T06:06:07.806Z,26.83
2023-03-30T06:07:07.808Z,26.82
2023-03-30T06:08:08.651Z,26.86
2023-03-30T06:09:07.793Z,26.87
2023-03-30T06:10:08.180Z,26.86
2023-03-30T06:11:07.776Z,26.87
2023-03-30T06:12:07.778Z,26.87
2023-03-30T06:13:07.763Z,26.90
2023-03-30T06:14:07.758Z,26.90
2023-03-30T06:15:07.721Z,26.89
2023-03-30T06:16:07.772Z,26.90
2023-03-30T06:17:07.720Z,26.91
2023-03-30T06:18:08.607Z,26.94
2023-03-30T06:19:07.739Z,26.96
2023-03-30T06:20:08.144Z,26.96
2023-03-30T06:21:07.858Z,26.97
2023-03-30T06:22:07.683Z,26.97
2023-03-30T06:23:07.692Z,26.97
2023-03-30T06:24:07.674Z,26.97
2023-03-30T06:25:07.689Z,26.99
2023-03-30T06:26:07.808Z,26.99
2023-03-30T06:27:07.667Z,26.99
2023-03-30T06:28:07.673Z,26.99
2023-03-30T06:29:07.637Z,26.99
2023-03-30T06:30:07.641Z,27.01
2023-03-30T06:31:07.624Z,26.99
2023-03-30T06:32:07.721Z,27.04
2023-03-30T06:33:07.705Z,27.03
2023-03-30T06:34:07.604Z,27.04
2023-03-30T06:35:07.654Z,27.04
2023-03-30T06:36:07.621Z,27.03
2023-03-30T06:37:07.658Z,27.04
2023-03-30T06:38:07.588Z,26.97
2023-03-30T06:39:07.586Z,26.93
2023-03-30T06:40:07.641Z,26.94
2023-03-30T06:41:07.734Z,26.96
2023-03-30T06:42:07.772Z,26.94
2023-03-30T06:43:07.787Z,26.94
2023-03-30T06:44:07.907Z,26.96
2023-03-30T06:45:07.898Z,26.91
2023-03-30T06:46:08.050Z,26.91
2023-03-30T06:47:08.031Z,26.90
2023-03-30T06:48:08.259Z,26.93
2023-03-30T06:49:08.163Z,26.89
2023-03-30T06:50:08.206Z,26.89
2023-03-30T06:51:08.665Z,26.87
2023-03-30T06:52:08.874Z,26.86
2023-03-30T06:53:08.409Z,26.86
2023-03-30T06:54:08.430Z,26.86
2023-03-30T06:55:08.486Z,26.86
2023-03-30T06:56:08.551Z,26.86
2023-03-30T06:57:08.643Z,26.85
2023-03-30T06:58:08.660Z,26.85
2023-03-30T06:59:08.732Z,26.85
2023-03-30T07:00:08.775Z,26.85
2023-03-30T07:01:08.888Z,26.85
2023-03-30T07:02:08.891Z,26.85
2023-03-30T07:03:09.186Z,26.83
2023-03-30T07:04:09.005Z,26.83
2023-03-30T07:05:09.055Z,26.85
2023-03-30T07:06:09.104Z,26.83
2023-03-30T07:07:09.104Z,26.83
2023-03-30T07:08:09.170Z,26.82
2023-03-30T07:09:09.266Z,26.79
2023-03-30T07:10:09.352Z,26.79
2023-03-30T07:11:09.673Z,26.72
2023-03-30T07:12:09.383Z,26.66
2023-03-30T07:13:09.658Z,26.59
2023-03-30T07:14:09.421Z,26.53
2023-03-30T07:15:09.468Z,26.49
2023-03-30T07:16:09.492Z,26.48
2023-03-30T07:17:09.596Z,26.45
2023-03-30T07:18:09.608Z,26.42
2023-03-30T07:19:09.586Z,26.42
2023-03-30T07:20:09.887Z,26.39
2023-03-30T07:21:09.623Z,26.35
2023-03-30T07:22:09.698Z,26.35
2023-03-30T07:23:09.709Z,26.32
2023-03-30T07:24:09.714Z,26.28
2023-03-30T07:25:09.774Z,26.29
2023-03-30T07:26:09.785Z,26.25
2023-03-30T07:27:10.169Z,26.28
2023-03-30T07:28:09.843Z,26.28
2023-03-30T07:29:09.887Z,26.32
2023-03-30T07:30:20.678Z,26.31
2023-03-30T07:31:10.911Z,26.36
2023-03-30T07:32:09.960Z,26.39
2023-03-30T07:33:09.905Z,26.43
2023-03-30T07:34:10.172Z,26.46
2023-03-30T07:35:09.883Z,26.51
2023-03-30T07:36:09.945Z,26.51
2023-03-30T07:37:09.837Z,26.59
2023-03-30T07:38:09.826Z,26.60
2023-03-30T07:39:09.830Z,26.63
2023-03-30T07:40:09.863Z,26.66
2023-03-30T07:41:09.848Z,26.68
2023-03-30T07:42:09.873Z,26.73
2023-03-30T07:43:09.946Z,26.76
2023-03-30T07:44:09.992Z,26.78
2023-03-30T07:45:10.085Z,26.79
2023-03-30T07:46:10.139Z,26.86
2023-03-30T07:47:10.124Z,26.89
2023-03-30T07:48:10.186Z,26.89
2023-03-30T07:49:10.197Z,26.94
2023-03-30T07:50:10.232Z,26.97
2023-03-30T07:51:10.305Z,26.97
2023-03-30T07:52:10.351Z,27.01
2023-03-30T07:53:10.341Z,27.04
2023-03-30T07:54:10.407Z,27.09
2023-03-30T07:55:10.402Z,27.07
2023-03-30T07:56:10.435Z,27.11
2023-03-30T07:57:10.466Z,27.15
2023-03-30T07:58:10.481Z,27.15
2023-03-30T07:59:10.551Z,27.20
2023-03-30T08:00:10.529Z,27.21
2023-03-30T08:01:10.525Z,27.23
2023-03-30T08:02:10.555Z,27.27
2023-03-30T08:03:10.672Z,27.28
2023-03-30T08:04:10.630Z,27.30
2023-03-30T08:05:10.668Z,27.34
2023-03-30T08:06:10.599Z,27.37
2023-03-30T08:07:10.614Z,27.40
2023-03-30T08:08:10.641Z,27.41
2023-03-30T08:09:10.610Z,27.41
2023-03-30T08:10:10.684Z,27.45
2023-03-30T08:11:10.654Z,27.47
2023-03-30T08:12:10.631Z,27.47
2023-03-30T08:13:10.642Z,27.50
2023-03-30T08:14:10.649Z,27.48
2023-03-30T08:15:10.640Z,27.51
2023-03-30T08:16:10.681Z,27.48
2023-03-30T08:17:10.659Z,27.52
2023-03-30T08:18:10.697Z,27.54
2023-03-30T08:19:10.649Z,27.54
2023-03-30T08:20:10.683Z,27.52
2023-03-30T08:21:10.656Z,27.55
2023-03-30T08:22:10.657Z,27.55
2023-03-30T08:23:10.657Z,27.54
2023-03-30T08:24:10.684Z,27.59
2023-03-30T08:25:10.707Z,27.58
2023-03-30T08:26:10.681Z,27.59
2023-03-30T08:27:10.718Z,27.59
2023-03-30T08:28:10.699Z,27.59
2023-03-30T08:29:10.684Z,27.59
2023-03-30T08:30:10.744Z,27.58
2023-03-30T08:31:10.800Z,27.57
2023-03-30T08:32:10.796Z,27.55
2023-03-30T08:33:10.815Z,27.54
2023-03-30T08:34:10.802Z,27.54
2023-03-30T08:35:10.820Z,27.54
2023-03-30T08:36:10.892Z,27.55
2023-03-30T08:37:10.923Z,27.55
2023-03-30T08:38:10.942Z,27.52
2023-03-30T08:39:11.021Z,27.50
2023-03-30T08:40:11.710Z,27.48
2023-03-30T08:41:11.071Z,27.50
2023-03-30T08:42:11.713Z,27.40
2023-03-30T08:43:11.219Z,27.36
2023-03-30T08:44:11.212Z,27.28
2023-03-30T08:45:11.754Z,27.27
2023-03-30T08:46:11.383Z,27.26
2023-03-30T08:47:11.331Z,27.26
2023-03-30T08:48:11.391Z,27.23
2023-03-30T08:49:11.412Z,27.21
2023-03-30T08:50:11.448Z,27.21
2023-03-30T08:51:11.466Z,27.24
2023-03-30T08:52:11.543Z,27.20
2023-03-30T08:53:11.541Z,27.24
2023-03-30T08:54:11.565Z,27.24
2023-03-30T08:55:11.552Z,27.26
2023-03-30T08:56:11.582Z,27.26
2023-03-30T08:57:11.646Z,27.27
2023-03-30T08:58:11.623Z,27.28
2023-03-30T08:59:11.637Z,27.28
2023-03-30T09:00:11.636Z,27.33
2023-03-30T09:01:11.746Z,27.33
2023-03-30T09:02:11.706Z,27.34
2023-03-30T09:03:11.683Z,27.36
2023-03-30T09:04:11.692Z,27.37
2023-03-30T09:05:11.735Z,27.36
2023-03-30T09:06:11.695Z,27.36
2023-03-30T09:07:11.683Z,27.37
2023-03-30T09:08:11.719Z,27.40
2023-03-30T09:09:11.686Z,27.41
2023-03-30T09:10:11.696Z,27.40
2023-03-30T09:11:12.208Z,27.38
2023-03-30T09:12:11.715Z,27.37
2023-03-30T09:13:11.690Z,27.38
2023-03-30T09:14:11.706Z,27.37
2023-03-30T09:15:11.705Z,27.37
2023-03-30T09:16:12.317Z,27.38
2023-03-30T09:17:11.737Z,27.38
2023-03-30T09:18:11.813Z,27.40
2023-03-30T09:19:11.722Z,27.40
2023-03-30T09:20:11.739Z,27.40
2023-03-30T09:21:12.222Z,27.37
2023-03-30T09:22:11.786Z,27.37
2023-03-30T09:23:11.730Z,27.38
2023-03-30T09:24:11.747Z,27.36
2023-03-30T09:25:11.765Z,27.34
2023-03-30T09:26:11.737Z,27.36
2023-03-30T09:27:11.740Z,27.36
2023-03-30T09:28:12.727Z,27.38
2023-03-30T09:29:11.745Z,27.38
2023-03-30T09:30:11.737Z,27.40
2023-03-30T09:31:11.742Z,27.40
2023-03-30T09:32:11.850Z,27.41
2023-03-30T09:33:11.772Z,27.41
2023-03-30T09:34:13.637Z,27.41
2023-03-30T09:35:11.819Z,27.38
2023-03-30T09:36:12.232Z,27.40
2023-03-30T09:37:11.785Z,27.40
2023-03-30T09:38:11.816Z,27.40
2023-03-30T09:39:11.820Z,27.37
2023-03-30T09:40:11.793Z,27.36
2023-03-30T09:41:12.274Z,27.34
2023-03-30T09:42:11.867Z,27.33
2023-03-30T09:43:13.719Z,27.33
2023-03-30T09:44:11.841Z,27.31
2023-03-30T09:45:11.866Z,27.31
2023-03-30T09:46:11.905Z,27.28
2023-03-30T09:47:11.921Z,27.27
2023-03-30T09:48:12.003Z,27.27
2023-03-30T09:49:11.943Z,27.26
2023-03-30T09:50:11.970Z,27.27
2023-03-30T09:51:12.232Z,27.26
2023-03-30T09:52:12.006Z,27.24
2023-03-30T09:53:12.042Z,27.26
2023-03-30T09:54:12.051Z,27.24
2023-03-30T09:55:12.078Z,27.21
2023-03-30T09:56:12.145Z,27.21
2023-03-30T09:57:12.140Z,27.21
2023-03-30T09:58:12.140Z,27.18
2023-03-30T09:59:12.159Z,27.18
2023-03-30T10:00:12.181Z,27.20
2023-03-30T10:01:12.241Z,27.18
2023-03-30T10:02:12.300Z,27.18
2023-03-30T10:03:12.358Z,27.18
2023-03-30T10:04:12.607Z,27.21
2023-03-30T10:05:12.305Z,27.20
2023-03-30T10:06:12.318Z,27.20
2023-03-30T10:07:18.581Z,27.18
2023-03-30T10:08:13.335Z,27.20
2023-03-30T10:09:12.315Z,27.20
2023-03-30T10:10:12.312Z,27.20
2023-03-30T10:11:12.319Z,27.20
2023-03-30T10:12:12.292Z,27.23
2023-03-30T10:13:12.315Z,27.24
2023-03-30T10:14:12.300Z,27.27
2023-03-30T10:15:12.244Z,27.21
2023-03-30T10:16:12.294Z,27.26
2023-03-30T10:17:12.269Z,27.24
2023-03-30T10:18:12.280Z,27.26
2023-03-30T10:19:12.261Z,27.26
2023-03-30T10:20:14.280Z,27.21
2023-03-30T10:21:12.213Z,27.21
2023-03-30T10:22:12.208Z,27.24
2023-03-30T10:23:12.207Z,27.24
2023-03-30T10:24:12.189Z,27.24
2023-03-30T10:25:12.211Z,27.27
2023-03-30T10:26:12.202Z,27.27
2023-03-30T10:27:12.234Z,27.26
2023-03-30T10:28:12.231Z,27.26
2023-03-30T10:29:12.280Z,27.26
2023-03-30T10:30:12.290Z,27.27
2023-03-30T10:31:12.338Z,27.28
2023-03-30T10:32:12.328Z,27.27
2023-03-30T10:33:12.321Z,27.26
2023-03-30T10:34:12.358Z,27.24
2023-03-30T10:35:12.379Z,27.24
2023-03-30T10:36:12.438Z,27.24
2023-03-30T10:37:12.406Z,27.27
2023-03-30T10:38:12.434Z,27.24
2023-03-30T10:39:12.428Z,27.26
2023-03-30T10:40:12.448Z,27.26
2023-03-30T10:41:12.471Z,27.26
2023-03-30T10:42:12.487Z,27.26
2023-03-30T10:43:12.509Z,27.24
2023-03-30T10:44:12.512Z,27.26
2023-03-30T10:45:12.526Z,27.27
2023-03-30T10:46:19.338Z,27.26
2023-03-30T10:47:13.545Z,27.27
2023-03-30T10:48:12.562Z,27.27
2023-03-30T10:49:12.529Z,27.28
2023-03-30T10:50:13.244Z,27.27
2023-03-30T10:51:12.481Z,27.27
2023-03-30T10:52:12.475Z,27.28
2023-03-30T10:53:12.480Z,27.26
2023-03-30T10:54:12.489Z,27.26
2023-03-30T10:55:12.490Z,27.28
2023-03-30T10:56:12.462Z,27.27
2023-03-30T10:57:12.823Z,27.28
2023-03-30T10:58:12.486Z,27.30
2023-03-30T10:59:12.506Z,27.30
2023-03-30T11:00:12.441Z,27.30
2023-03-30T11:01:12.453Z,27.30
2023-03-30T11:02:12.435Z,27.30
2023-03-30T11:03:12.484Z,27.28
2023-03-30T11:04:23.239Z,27.27
2023-03-30T11:05:13.411Z,27.27
2023-03-30T11:06:12.379Z,27.26
2023-03-30T11:07:12.803Z,27.27
2023-03-30T11:08:12.374Z,27.24
2023-03-30T11:09:12.357Z,27.24
2023-03-30T11:10:12.374Z,27.26
2023-03-30T11:11:12.358Z,27.26
2023-03-30T11:12:12.362Z,27.24
2023-03-30T11:13:12.356Z,27.24
2023-03-30T11:14:12.322Z,27.24
2023-03-30T11:15:12.355Z,27.23
2023-03-30T11:16:12.406Z,27.24
2023-03-30T11:17:12.813Z,27.24
2023-03-30T11:18:12.413Z,27.23
2023-03-30T11:19:12.408Z,27.24
2023-03-30T11:20:12.301Z,27.21
2023-03-30T11:21:12.318Z,27.24
2023-03-30T11:22:12.753Z,27.27
2023-03-30T11:23:12.353Z,27.24
2023-03-30T11:24:12.261Z,27.24
2023-03-30T11:25:12.255Z,27.27
2023-03-30T11:26:12.273Z,27.24
2023-03-30T11:27:12.759Z,27.23
2023-03-30T11:28:12.306Z,27.24
2023-03-30T11:29:12.308Z,27.26
2023-03-30T11:30:12.360Z,27.23
2023-03-30T11:31:12.384Z,27.21
2023-03-30T11:32:12.443Z,27.23
2023-03-30T11:33:12.476Z,27.17
2023-03-30T11:34:12.468Z,27.20
2023-03-30T11:35:12.545Z,27.17
2023-03-30T11:36:12.604Z,27.18
2023-03-30T11:37:12.574Z,27.15
2023-03-30T11:38:12.593Z,27.17
2023-03-30T11:39:18.570Z,27.15
2023-03-30T11:40:13.632Z,27.17
2023-03-30T11:41:12.627Z,27.13
2023-03-30T11:42:12.597Z,27.15
2023-03-30T11:43:12.664Z,27.15
2023-03-30T11:44:12.621Z,27.15
2023-03-30T11:45:12.599Z,27.14
2023-03-30T11:46:12.603Z,27.15
2023-03-30T11:47:12.588Z,27.14
2023-03-30T11:48:12.603Z,27.11
2023-03-30T11:49:13.437Z,27.14
2023-03-30T11:50:12.543Z,27.14
2023-03-30T11:51:12.569Z,27.13
2023-03-30T11:52:12.570Z,27.13
2023-03-30T11:53:12.522Z,27.11
2023-03-30T11:54:12.518Z,27.10
2023-03-30T11:55:12.517Z,27.11
2023-03-30T11:56:12.569Z,27.10
2023-03-30T11:57:12.574Z,27.10
2023-03-30T11:58:12.587Z,27.09
2023-03-30T11:59:12.602Z,27.09
2023-03-30T12:00:12.648Z,27.09
2023-03-30T12:01:12.662Z,27.10
2023-03-30T12:02:12.719Z,27.07
2023-03-30T12:03:12.925Z,27.10
2023-03-30T12:04:12.841Z,27.10
2023-03-30T12:05:12.762Z,27.09
2023-03-30T12:06:12.767Z,27.07
2023-03-30T12:07:12.806Z,27.10
2023-03-30T12:08:12.839Z,27.09
2023-03-30T12:09:12.883Z,27.09
2023-03-30T12:10:12.894Z,27.10
2023-03-30T12:11:12.924Z,27.09
2023-03-30T12:12:12.953Z,27.10
2023-03-30T12:13:12.960Z,27.07
2023-03-30T12:14:13.000Z,27.07
2023-03-30T12:15:13.034Z,27.06
2023-03-30T12:16:13.111Z,27.07
2023-03-30T12:17:13.067Z,27.07
2023-03-30T12:18:13.104Z,27.07
2023-03-30T12:19:13.155Z,27.09
2023-03-30T12:20:13.173Z,27.06
2023-03-30T12:21:13.184Z,27.06
2023-03-30T12:22:13.213Z,27.04
2023-03-30T12:23:13.251Z,27.06
2023-03-30T12:24:13.279Z,27.06
2023-03-30T12:25:13.290Z,27.06
2023-03-30T12:26:13.341Z,27.04
2023-03-30T12:27:13.336Z,27.06
2023-03-30T12:28:13.383Z,27.03
2023-03-30T12:29:52.342Z,27.01
2023-03-30T12:30:14.442Z,27.01
2023-03-30T12:31:13.416Z,27.03
2023-03-30T12:32:13.386Z,27.03
2023-03-30T12:33:13.425Z,27.01
2023-03-30T12:34:13.372Z,27.01
2023-03-30T12:35:13.344Z,26.99
2023-03-30T12:36:13.378Z,26.99
2023-03-30T12:37:13.502Z,26.99
2023-03-30T12:38:13.367Z,27.00
2023-03-30T12:39:13.324Z,27.00
2023-03-30T12:40:13.355Z,27.00
2023-03-30T12:41:13.363Z,27.01
2023-03-30T12:42:13.355Z,27.00
2023-03-30T12:43:13.296Z,26.97
2023-03-30T12:44:13.353Z,26.97
2023-03-30T12:45:13.386Z,27.00
2023-03-30T12:46:13.447Z,26.99
2023-03-30T12:47:13.457Z,26.99
2023-03-30T12:48:13.536Z,27.00
2023-03-30T12:49:13.516Z,26.96
2023-03-30T12:50:13.540Z,26.97
2023-03-30T12:51:13.619Z,26.99
2023-03-30T12:52:13.624Z,26.96